createdAt,value
2022-08-28T00:00:16.131Z,5.38
2022-08-28T00:02:43.368Z,4.15
2022-08-28T00:07:38.340Z,4.60
2022-08-28T00:10:07.665Z,6.40
2022-08-28T00:12:35.419Z,15.55
2022-08-28T00:15:30.486Z,7.05
2022-08-28T00:17:58.085Z,7.05
2022-08-28T00:20:28.965Z,6.78
2022-08-28T00:22:56.731Z,7.40
2022-08-28T00:25:26.822Z,7.30
2022-08-28T00:27:57.409Z,7.28
2022-08-28T00:30:38.104Z,8.98
2022-08-28T00:33:08.813Z,10.80
2022-08-28T00:35:40.541Z,10.85
2022-08-28T00:38:09.634Z,10.80
2022-08-28T00:40:40.085Z,9.45
2022-08-28T00:43:08.520Z,10.38
2022-08-28T00:45:39.803Z,8.75
2022-08-28T00:48:07.592Z,9.02
2022-08-28T00:53:29.019Z,7.70
2022-08-28T00:56:01.458Z,7.68
2022-08-28T00:58:31.219Z,7.57
2022-08-28T01:00:59.145Z,7.32
2022-08-28T01:03:28.178Z,5.90
2022-08-28T01:05:55.146Z,6.30
2022-08-28T01:08:21.826Z,5.95
2022-08-28T01:10:55.133Z,5.90
2022-08-28T01:13:24.025Z,5.35
2022-08-28T01:15:51.496Z,5.50
2022-08-28T01:18:20.051Z,5.35
2022-08-28T01:20:59.123Z,5.63
2022-08-28T01:23:37.692Z,5.97
2022-08-28T01:26:10.882Z,6.53
2022-08-28T01:28:39.841Z,5.85
2022-08-28T01:31:10.185Z,5.93
2022-08-28T01:33:37.433Z,7.32
2022-08-28T01:36:10.369Z,6.18
2022-08-28T01:38:38.606Z,5.97
2022-08-28T01:41:05.687Z,6.95
2022-08-28T01:43:32.651Z,6.72
2022-08-28T01:46:02.197Z,6.25
2022-08-28T01:48:31.381Z,5.57
2022-08-28T01:50:58.223Z,4.85
2022-08-28T01:53:32.569Z,6.70
2022-08-28T01:56:02.752Z,6.18
2022-08-28T01:58:34.931Z,5.95
2022-08-28T02:01:15.692Z,5.80
2022-08-28T02:03:45.289Z,7.47
2022-08-28T02:06:13.148Z,7.22
2022-08-28T02:08:39.899Z,6.60
2022-08-28T02:11:08.789Z,6.80
2022-08-28T02:13:37.072Z,8.57
2022-08-28T02:16:06.235Z,8.40
2022-08-28T02:18:33.119Z,6.80
2022-08-28T02:20:59.820Z,7.72
2022-08-28T02:23:27.208Z,6.63
2022-08-28T02:25:54.032Z,6.25
2022-08-28T02:28:20.806Z,5.93
2022-08-28T02:30:47.550Z,5.53
2022-08-28T02:33:16.099Z,5.68
2022-08-28T02:35:43.301Z,5.03
2022-08-28T02:38:10.357Z,5.10
2022-08-28T02:40:38.454Z,4.82
2022-08-28T02:43:05.613Z,4.95
2022-08-28T02:45:32.746Z,5.18
2022-08-28T02:48:01.529Z,5.20
2022-08-28T02:50:29.826Z,4.50
2022-08-28T02:52:57.125Z,4.30
2022-08-28T02:57:52.817Z,3.53
2022-08-28T03:00:24.049Z,3.50
2022-08-28T03:02:52.312Z,3.30
2022-08-28T03:05:22.205Z,3.85
2022-08-28T03:07:50.366Z,3.30
2022-08-28T03:10:17.295Z,4.57
2022-08-28T03:12:44.303Z,3.15
2022-08-28T03:15:11.540Z,3.53
2022-08-28T03:20:07.686Z,3.17
2022-08-28T03:22:53.325Z,3.30
2022-08-28T03:25:22.207Z,2.35
2022-08-28T03:27:49.481Z,2.72
2022-08-28T03:32:42.938Z,2.85
2022-08-28T03:35:10.272Z,2.70
2022-08-28T03:40:04.842Z,3.33
2022-08-28T03:42:31.721Z,3.13
2022-08-28T03:44:59.413Z,3.45
2022-08-28T03:47:28.248Z,4.72
2022-08-28T03:49:57.496Z,4.18
2022-08-28T03:52:24.708Z,3.10
2022-08-28T03:54:51.832Z,3.63
2022-08-28T03:57:20.765Z,3.88
2022-08-28T03:59:48.976Z,2.88
2022-08-28T04:02:19.035Z,2.75
2022-08-28T04:04:46.929Z,2.47
2022-08-28T04:07:13.948Z,2.47
2022-08-28T04:09:40.625Z,2.72
2022-08-28T04:12:08.692Z,2.50
2022-08-28T04:14:36.106Z,2.15
2022-08-28T04:17:03.488Z,2.17
2022-08-28T04:19:30.260Z,2.22
2022-08-28T04:21:56.952Z,2.17
2022-08-28T04:24:23.670Z,2.33
2022-08-28T04:26:50.561Z,2.30
2022-08-28T04:29:17.797Z,2.30
2022-08-28T04:34:11.211Z,1.73
2022-08-28T04:36:38.338Z,2.42
2022-08-28T04:39:08.465Z,2.17
2022-08-28T04:41:37.542Z,2.00
2022-08-28T04:44:04.921Z,2.10
2022-08-28T04:46:32.332Z,1.90
2022-08-28T04:48:59.613Z,2.05
2022-08-28T04:53:53.331Z,2.83
2022-08-28T04:56:20.119Z,2.05
2022-08-28T04:58:46.847Z,2.00
2022-08-28T05:01:19.861Z,1.88
2022-08-28T05:03:48.863Z,2.00
2022-08-28T05:06:16.314Z,1.58
2022-08-28T05:08:43.198Z,1.65
2022-08-28T05:11:34.382Z,1.60
2022-08-28T05:14:07.026Z,1.58
2022-08-28T05:16:42.853Z,1.60
2022-08-28T05:19:10.199Z,1.90
2022-08-28T05:24:04.597Z,1.63
2022-08-28T05:26:32.517Z,1.63
2022-08-28T05:28:59.984Z,1.60
2022-08-28T05:31:28.934Z,1.60
2022-08-28T05:33:55.881Z,1.92
2022-08-28T05:36:25.367Z,1.65
2022-08-28T05:38:57.622Z,1.40
2022-08-28T05:41:30.699Z,2.20
2022-08-28T05:44:02.967Z,1.90
2022-08-28T05:46:29.786Z,1.60
2022-08-28T05:48:57.633Z,1.52
2022-08-28T05:51:26.633Z,1.30
2022-08-28T05:53:55.351Z,1.50
2022-08-28T05:56:29.867Z,1.40
2022-08-28T05:59:00.743Z,1.33
2022-08-28T06:01:32.954Z,1.65
2022-08-28T06:04:18.291Z,1.33
2022-08-28T06:06:46.167Z,1.40
2022-08-28T06:09:16.173Z,1.70
2022-08-28T06:11:44.724Z,1.52
2022-08-28T06:14:16.485Z,1.30
2022-08-28T06:16:47.861Z,1.42
2022-08-28T06:19:15.038Z,1.88
2022-08-28T06:24:10.126Z,1.60
2022-08-28T06:26:37.132Z,1.55
2022-08-28T06:29:09.405Z,1.77
2022-08-28T06:31:36.850Z,1.60
2022-08-28T06:34:10.072Z,1.88
2022-08-28T06:36:41.659Z,2.17
2022-08-28T06:39:10.550Z,1.90
2022-08-28T06:41:42.985Z,1.95
2022-08-28T06:44:12.434Z,1.90
2022-08-28T06:46:39.583Z,1.77
2022-08-28T06:51:35.022Z,1.70
2022-08-28T06:54:02.452Z,1.80
2022-08-28T06:56:29.746Z,1.77
2022-08-28T06:58:58.022Z,2.10
2022-08-28T07:01:29.217Z,2.25
2022-08-28T07:03:59.508Z,2.38
2022-08-28T07:06:26.749Z,2.20
2022-08-28T07:11:28.870Z,2.90
2022-08-28T07:13:56.841Z,2.30
2022-08-28T07:16:26.809Z,2.35
2022-08-28T07:18:54.238Z,2.00
2022-08-28T07:21:21.085Z,2.13
2022-08-28T07:23:48.448Z,2.35
2022-08-28T07:26:20.901Z,2.38
2022-08-28T07:28:47.601Z,2.38
2022-08-28T07:31:20.481Z,2.50
2022-08-28T07:33:47.257Z,2.85
2022-08-28T07:36:29.593Z,2.33
2022-08-28T07:38:59.457Z,2.50
2022-08-28T07:41:30.292Z,2.00
2022-08-28T07:44:17.443Z,2.00
2022-08-28T07:46:44.982Z,1.95
2022-08-28T07:49:15.498Z,2.22
2022-08-28T07:51:42.301Z,2.40
2022-08-28T07:54:15.685Z,2.75
2022-08-28T07:56:45.301Z,2.03
2022-08-28T08:01:45.183Z,2.00
2022-08-28T08:04:13.901Z,2.08
2022-08-28T08:06:41.997Z,2.00
2022-08-28T08:09:11.468Z,2.10
2022-08-28T08:11:38.229Z,1.67
2022-08-28T08:14:06.091Z,1.50
2022-08-28T08:16:35.467Z,1.70
2022-08-28T08:19:02.327Z,1.80
2022-08-28T08:21:30.483Z,1.52
2022-08-28T08:23:58.311Z,1.80
2022-08-28T08:26:28.056Z,1.63
2022-08-28T08:28:56.146Z,1.98
2022-08-28T08:31:33.410Z,2.30
2022-08-28T08:34:04.968Z,1.80
2022-08-28T08:36:33.534Z,2.10
2022-08-28T08:39:00.951Z,2.03
2022-08-28T08:41:48.063Z,1.85
2022-08-28T08:44:44.580Z,2.10
2022-08-28T08:47:19.406Z,2.10
2022-08-28T08:49:59.673Z,2.00
2022-08-28T08:52:49.908Z,2.33
2022-08-28T08:55:23.491Z,2.38
2022-08-28T08:58:08.051Z,2.20
2022-08-28T09:00:44.529Z,2.30
2022-08-28T09:03:25.892Z,2.30
2022-08-28T09:05:59.964Z,1.90
2022-08-28T09:08:39.162Z,2.15
2022-08-28T09:11:31.566Z,1.80
2022-08-28T09:14:12.470Z,2.28
2022-08-28T09:16:42.345Z,2.00
2022-08-28T09:19:14.930Z,1.73
2022-08-28T09:21:43.797Z,1.73
2022-08-28T09:24:20.920Z,1.65
2022-08-28T09:26:53.628Z,2.03
2022-08-28T09:29:29.619Z,2.05
2022-08-28T09:31:56.500Z,1.85
2022-08-28T09:34:28.720Z,2.22
2022-08-28T09:36:57.496Z,2.00
2022-08-28T09:39:28.669Z,2.05
2022-08-28T09:42:16.821Z,1.77
2022-08-28T09:45:18.362Z,1.60
2022-08-28T09:47:55.423Z,1.92
2022-08-28T09:50:37.496Z,1.67
2022-08-28T09:53:09.911Z,1.75
2022-08-28T09:55:51.053Z,1.85
2022-08-28T09:58:20.774Z,1.75
2022-08-28T10:00:56.750Z,1.50
2022-08-28T10:04:05.047Z,1.50
2022-08-28T10:06:36.992Z,1.40
2022-08-28T10:10:00.158Z,1.60
2022-08-28T10:12:37.428Z,1.60
2022-08-28T10:15:23.511Z,1.90
2022-08-28T10:18:27.817Z,2.10
2022-08-28T10:21:19.849Z,2.00
2022-08-28T10:24:09.556Z,2.55
2022-08-28T10:26:51.296Z,2.25
2022-08-28T10:29:38.220Z,2.20
2022-08-28T10:32:27.149Z,2.63
2022-08-28T10:35:05.951Z,2.53
2022-08-28T10:38:03.233Z,2.58
2022-08-28T10:40:36.591Z,2.53
2022-08-28T10:43:21.144Z,2.50
2022-08-28T10:45:49.344Z,3.33
2022-08-28T10:48:27.040Z,2.40
2022-08-28T10:53:41.342Z,2.45
2022-08-28T10:56:14.604Z,2.70
2022-08-28T10:58:41.853Z,2.60
2022-08-28T11:01:14.764Z,2.17
2022-08-28T11:03:51.624Z,2.50
2022-08-28T11:06:30.644Z,2.03
2022-08-28T11:09:00.514Z,1.80
2022-08-28T11:11:46.662Z,1.80
2022-08-28T11:14:26.022Z,1.40
2022-08-28T11:16:56.792Z,1.80
2022-08-28T11:19:43.831Z,1.63
2022-08-28T11:22:18.058Z,3.67
2022-08-28T11:25:04.332Z,4.05
2022-08-28T11:27:36.306Z,3.70
2022-08-28T11:30:09.047Z,2.80
2022-08-28T11:32:38.038Z,3.05
2022-08-28T11:35:23.034Z,2.78
2022-08-28T11:37:57.316Z,3.10
2022-08-28T11:40:30.238Z,2.72
2022-08-28T11:43:16.468Z,2.40
2022-08-28T11:45:46.791Z,2.53
2022-08-28T11:48:36.307Z,2.78
2022-08-28T11:51:29.859Z,2.58
2022-08-28T11:54:23.865Z,2.72
2022-08-28T11:57:15.348Z,3.10
2022-08-28T11:59:55.971Z,3.38
2022-08-28T12:02:41.107Z,3.05
2022-08-28T12:05:17.533Z,3.55
2022-08-28T12:07:47.455Z,3.83
2022-08-28T12:10:20.447Z,3.40
2022-08-28T12:12:47.194Z,3.10
2022-08-28T12:15:29.722Z,3.15
2022-08-28T12:18:00.225Z,3.60
2022-08-28T12:20:45.656Z,3.88
2022-08-28T12:23:38.060Z,3.80
2022-08-28T12:26:36.062Z,3.78
2022-08-28T12:29:25.491Z,3.60
2022-08-28T12:32:18.913Z,4.15
2022-08-28T12:34:57.931Z,3.50
2022-08-28T12:37:58.502Z,4.82
2022-08-28T12:40:50.309Z,5.00
2022-08-28T12:43:46.550Z,4.78
2022-08-28T12:46:38.284Z,5.00
2022-08-28T12:49:26.276Z,5.00
2022-08-28T12:52:17.955Z,5.28
2022-08-28T12:54:47.064Z,5.18
2022-08-28T12:57:17.688Z,5.82
2022-08-28T12:59:47.320Z,5.00
2022-08-28T13:02:27.733Z,4.63
2022-08-28T13:05:03.682Z,5.80
2022-08-28T13:07:34.139Z,4.85
2022-08-28T13:10:21.394Z,5.70
2022-08-28T13:13:05.801Z,5.57
2022-08-28T13:16:06.802Z,6.07
2022-08-28T13:18:40.569Z,6.05
2022-08-28T13:21:32.801Z,6.68
2022-08-28T13:24:21.372Z,7.25
2022-08-28T13:27:00.634Z,6.47
2022-08-28T13:29:27.456Z,7.25
2022-08-28T13:32:08.459Z,7.07
2022-08-28T13:34:47.796Z,8.48
2022-08-28T13:37:46.129Z,8.18
2022-08-28T13:40:36.884Z,6.72
2022-08-28T13:43:07.067Z,7.30
2022-08-28T13:45:42.694Z,7.75
2022-08-28T13:48:18.655Z,7.53
2022-08-28T13:50:48.804Z,7.10
2022-08-28T13:53:18.057Z,7.10
2022-08-28T13:55:46.002Z,7.88
2022-08-28T13:58:14.089Z,7.22
2022-08-28T14:00:44.483Z,7.68
2022-08-28T14:03:29.795Z,7.20
2022-08-28T14:05:56.749Z,7.18
2022-08-28T14:08:24.071Z,7.35
2022-08-28T14:10:50.981Z,7.25
2022-08-28T14:13:18.661Z,7.55
2022-08-28T14:15:45.741Z,7.22
2022-08-28T14:18:12.550Z,6.65
2022-08-28T14:20:39.675Z,6.97
2022-08-28T14:25:38.503Z,6.78
2022-08-28T14:28:06.014Z,5.82
2022-08-28T14:30:32.795Z,6.43
2022-08-28T14:32:59.799Z,6.47
2022-08-28T14:35:26.624Z,5.93
2022-08-28T14:37:53.327Z,7.18
2022-08-28T14:40:20.199Z,6.25
2022-08-28T14:42:47.030Z,6.15
2022-08-28T14:45:13.781Z,7.05
2022-08-28T14:47:40.675Z,7.22
2022-08-28T14:50:07.833Z,7.43
2022-08-28T14:55:01.405Z,6.70
2022-08-28T14:57:28.137Z,6.18
2022-08-28T14:59:55.003Z,6.35
2022-08-28T15:02:21.812Z,6.68
2022-08-28T15:04:48.819Z,5.38
2022-08-28T15:07:15.590Z,5.78
2022-08-28T15:09:42.999Z,5.78
2022-08-28T15:12:12.792Z,5.90
2022-08-28T15:14:39.664Z,6.00
2022-08-28T15:17:08.224Z,5.65
2022-08-28T15:19:34.931Z,5.13
2022-08-28T15:22:04.117Z,5.30
2022-08-28T15:24:34.240Z,5.32
2022-08-28T15:27:02.068Z,4.63
2022-08-28T15:29:29.892Z,5.22
2022-08-28T15:31:57.817Z,5.10
2022-08-28T15:34:26.696Z,5.35
2022-08-28T15:36:56.066Z,5.10
2022-08-28T15:39:43.080Z,5.63
2022-08-28T15:42:11.303Z,5.18
2022-08-28T15:45:12.023Z,4.80
2022-08-28T15:48:51.201Z,5.55
2022-08-28T15:51:25.228Z,5.43
2022-08-28T15:53:52.870Z,5.55
2022-08-28T15:56:20.141Z,5.97
2022-08-28T15:58:47.362Z,5.80
2022-08-28T16:01:14.544Z,5.25
2022-08-28T16:03:41.398Z,5.88
2022-08-28T16:06:15.934Z,6.13
2022-08-28T16:08:43.467Z,5.63
2022-08-28T16:11:14.454Z,5.45
2022-08-28T16:13:41.180Z,5.45
2022-08-28T16:16:08.034Z,6.55
2022-08-28T16:18:34.790Z,5.50
2022-08-28T16:21:04.685Z,5.07
2022-08-28T16:23:32.515Z,5.72
2022-08-28T16:26:00.446Z,4.38
2022-08-28T16:28:27.618Z,4.88
2022-08-28T16:30:54.515Z,3.97
2022-08-28T16:35:56.239Z,3.67
2022-08-28T16:38:24.330Z,3.80
2022-08-28T16:40:51.072Z,4.18
2022-08-28T16:43:17.876Z,4.15
2022-08-28T16:45:46.013Z,3.92
2022-08-28T16:48:14.032Z,4.07
2022-08-28T16:50:42.812Z,3.97
2022-08-28T16:53:09.960Z,4.30
2022-08-28T16:55:37.239Z,4.78
2022-08-28T16:58:04.291Z,4.63
2022-08-28T17:00:31.398Z,5.07
2022-08-28T17:02:58.236Z,4.55
2022-08-28T17:05:25.270Z,4.93
2022-08-28T17:07:52.142Z,4.13
2022-08-28T17:12:47.185Z,4.70
2022-08-28T17:17:41.128Z,4.80
2022-08-28T17:20:29.459Z,5.38
2022-08-28T17:22:56.562Z,5.45
2022-08-28T17:27:50.389Z,5.13
2022-08-28T17:35:13.411Z,6.55
2022-08-28T17:37:40.726Z,6.43
2022-08-28T17:40:11.934Z,6.25
2022-08-28T17:42:38.989Z,6.20
2022-08-28T17:45:08.353Z,6.55
2022-08-28T17:47:35.054Z,6.75
2022-08-28T17:50:02.669Z,6.07
2022-08-28T17:52:29.846Z,6.25
2022-08-28T17:57:24.287Z,6.20
2022-08-28T17:59:51.399Z,6.35
2022-08-28T18:02:19.141Z,6.05
2022-08-28T18:04:45.907Z,6.07
2022-08-28T18:07:12.690Z,6.32
2022-08-28T18:09:39.375Z,6.40
2022-08-28T18:12:12.522Z,7.00
2022-08-28T18:14:40.234Z,6.50
2022-08-28T18:17:07.441Z,5.80
2022-08-28T18:19:36.776Z,6.25
2022-08-28T18:22:03.548Z,6.15
2022-08-28T18:24:32.070Z,6.18
2022-08-28T18:26:59.081Z,6.47
2022-08-28T18:29:26.878Z,5.97
2022-08-28T18:31:54.150Z,5.90
2022-08-28T18:36:48.860Z,6.30
2022-08-28T18:39:15.598Z,5.50
2022-08-28T18:41:56.066Z,5.95
2022-08-28T18:44:24.366Z,5.75
2022-08-28T18:46:51.705Z,5.93
2022-08-28T18:51:45.902Z,5.55
2022-08-28T18:54:16.430Z,5.57
2022-08-28T18:56:44.089Z,5.50
2022-08-28T18:59:11.064Z,6.30
2022-08-28T19:01:38.192Z,6.10
2022-08-28T19:06:32.887Z,7.10
2022-08-28T19:11:26.829Z,5.60
2022-08-28T19:16:20.645Z,5.78
2022-08-28T19:21:19.657Z,5.30
2022-08-28T19:23:56.092Z,6.22
2022-08-28T19:26:24.582Z,5.90
2022-08-28T19:28:51.497Z,5.45
2022-08-28T19:31:18.383Z,5.50
2022-08-28T19:33:47.000Z,6.10
2022-08-28T19:36:14.485Z,6.63
2022-08-28T19:38:41.750Z,6.90
2022-08-28T19:43:41.630Z,6.50
2022-08-28T19:46:18.253Z,6.18
2022-08-28T19:48:48.439Z,6.10
2022-08-28T19:51:17.486Z,6.22
2022-08-28T19:53:46.905Z,5.13
2022-08-28T19:56:13.714Z,5.32
2022-08-28T19:58:40.440Z,5.35
2022-08-28T20:01:07.271Z,5.25
2022-08-28T20:03:34.112Z,5.68
2022-08-28T20:06:05.317Z,5.28
2022-08-28T20:08:32.149Z,5.40
2022-08-28T20:10:59.353Z,5.05
2022-08-28T20:15:53.805Z,4.20
2022-08-28T20:18:21.692Z,4.72
2022-08-28T20:20:49.841Z,4.53
2022-08-28T20:23:18.083Z,5.15
2022-08-28T20:25:49.184Z,4.20
2022-08-28T20:28:17.328Z,3.83
2022-08-28T20:30:44.297Z,3.83
2022-08-28T20:33:11.368Z,3.53
2022-08-28T20:35:38.113Z,3.22
2022-08-28T20:38:04.950Z,3.20
2022-08-28T20:40:31.761Z,3.17
2022-08-28T20:42:59.779Z,3.28
2022-08-28T20:45:26.677Z,3.13
2022-08-28T20:47:53.397Z,3.15
2022-08-28T20:50:20.647Z,3.60
2022-08-28T20:55:14.805Z,3.22
2022-08-28T20:57:41.754Z,2.72
2022-08-28T21:00:10.410Z,3.20
2022-08-28T21:02:37.404Z,3.30
2022-08-28T21:05:04.828Z,2.75
2022-08-28T21:07:33.383Z,3.08
2022-08-28T21:10:07.269Z,2.60
2022-08-28T21:12:38.770Z,2.67
2022-08-28T21:15:11.288Z,3.10
2022-08-28T21:17:39.244Z,2.75
2022-08-28T21:20:10.620Z,2.33
2022-08-28T21:22:38.428Z,2.67
2022-08-28T21:25:08.038Z,2.33
2022-08-28T21:27:34.968Z,2.70
2022-08-28T21:30:02.644Z,2.58
2022-08-28T21:32:30.574Z,2.72
2022-08-28T21:34:57.311Z,2.95
2022-08-28T21:37:24.128Z,2.67
2022-08-28T21:39:52.186Z,2.53
2022-08-28T21:42:20.688Z,2.58
2022-08-28T21:44:51.748Z,2.67
2022-08-28T21:47:21.322Z,2.80
2022-08-28T21:49:50.069Z,4.00
2022-08-28T21:52:18.241Z,2.80
2022-08-28T21:54:44.969Z,2.85
2022-08-28T21:57:11.738Z,2.58
2022-08-28T21:59:38.900Z,2.70
2022-08-28T22:02:06.207Z,2.45
2022-08-28T22:04:33.201Z,2.60
2022-08-28T22:06:59.892Z,2.50
2022-08-28T22:09:26.583Z,4.65
2022-08-28T22:11:53.381Z,3.55
2022-08-28T22:14:20.107Z,2.45
2022-08-28T22:16:46.887Z,2.70
2022-08-28T22:19:13.646Z,2.70
2022-08-28T22:21:59.089Z,3.00
2022-08-28T22:24:25.772Z,2.65
2022-08-28T22:26:54.414Z,2.55
2022-08-28T22:29:24.680Z,2.47
2022-08-28T22:31:51.482Z,2.60
2022-08-28T22:34:18.302Z,2.33
2022-08-28T22:36:44.991Z,3.30
2022-08-28T22:39:11.746Z,2.92
2022-08-28T22:41:38.629Z,3.40
2022-08-28T22:44:05.737Z,2.85
2022-08-28T22:46:32.424Z,3.20
2022-08-28T22:48:59.405Z,2.50
2022-08-28T22:51:26.108Z,2.80
2022-08-28T22:53:52.869Z,2.85
2022-08-28T22:56:19.730Z,3.15
2022-08-28T22:58:46.486Z,2.50
2022-08-28T23:01:19.863Z,2.55
2022-08-28T23:03:46.973Z,2.25
2022-08-28T23:06:13.911Z,2.72
2022-08-28T23:08:40.899Z,2.17
2022-08-28T23:11:07.847Z,2.30
2022-08-28T23:13:45.430Z,2.50
2022-08-28T23:16:13.037Z,2.67
2022-08-28T23:19:06.662Z,2.45
2022-08-28T23:21:28.393Z,2.30
2022-08-28T23:23:56.290Z,2.55
2022-08-28T23:26:24.122Z,1.77
2022-08-28T23:28:51.312Z,2.50
2022-08-28T23:31:18.163Z,2.20
2022-08-28T23:33:46.216Z,2.25
2022-08-28T23:36:14.528Z,2.25
2022-08-28T23:38:43.018Z,2.75
2022-08-28T23:41:11.295Z,3.90
2022-08-28T23:43:38.567Z,2.40
2022-08-28T23:46:06.560Z,2.97
2022-08-28T23:48:33.587Z,2.50
2022-08-28T23:51:02.140Z,2.20
2022-08-28T23:53:29.231Z,2.22
2022-08-28T23:55:55.893Z,2.10
2022-08-28T23:58:22.701Z,2.30
